Terminal Aerodrome Forecast
Issued by NWS

Home | Current Version | Previous Version | Graphics & Text | Print | Product List | Glossary On
Versions: 1 2 3 4 5 6 7 8 9 10 11 12 13 14 15 16 17 18 19 20 21
000
FTUS43 KICT 241425 AAB
TAFRSL
TAF AMD
KRSL 241425Z 2414/2512 13005KT 3SM BR SCT002 BKN015
      TEMPO 2414/2416 BKN004
     FM241700 17010KT P6SM VCSH SCT015 BKN025=

USA.gov is the U.S. government's official web portal to all federal, state and local government web resources and services.